Time;durP1;ratioP1;P1;durP2;ratioP2;P2;SDS_P1;SDS_P2;PMS_P1;PMS_P2;Temp;Humidity;BMP_temperature;BMP_pressure;BME280_temperature;BME280_humidity;BME280_pressure;Samples;Min_cycle;Max_cycle;Signal;HPM_P1;HPM_P2
2021/10/14 00:01:31;;;;;;;;;;;;;;;;;;5015254;28;20384;-74
2021/10/14 00:03:57;;;;;;;;;;;;;;;;;;5015223;28;20004;-76
2021/10/14 00:06:23;;;;;;;;;;;;;;;;;;5015936;28;19951;-75
2021/10/14 00:08:49;;;;;;;;;;;;;;;;;;5015143;28;19913;-74
2021/10/14 00:11:15;;;;;;;;;;;;;;;;;;5015424;28;19921;-75
2021/10/14 00:13:41;;;;;;;;;;;;;;;;;;4997975;28;20004;-74
2021/10/14 00:16:07;;;;;;;;;;;;;;;;;;5015087;28;19910;-75
2021/10/14 00:18:33;;;;;;;;;;;;;;;;;;4998091;28;19913;-75
2021/10/14 00:20:59;;;;;;;;;;;;;;;;;;5014759;28;19913;-72
2021/10/14 00:23:25;;;;;;;;;;;;;;;;;;5014872;28;19913;-75
2021/10/14 00:25:51;;;;;;;;;;;;;;;;;;5015195;28;19917;-75
2021/10/14 00:28:17;;;;;;;;;;;;;;;;;;5015745;28;20356;-75
2021/10/14 00:30:43;;;;;;;;;;;;;;;;;;5014887;28;20020;-75
2021/10/14 00:33:08;;;;;;;;;;;;;;;;;;5015485;28;20373;-76
2021/10/14 00:35:34;;;;;;;;;;;;;;;;;;5015044;28;20375;-72
2021/10/14 00:38:00;;;;;;;;;;;;;;;;;;5015351;28;20372;-76
2021/10/14 00:40:26;;;;;;;;;;;;;;;;;;5015893;28;19916;-75
2021/10/14 00:42:52;;;;;;;;;;;;;;;;;;5014953;28;19957;-75
2021/10/14 00:45:19;;;;;;;;;;;;;;;;;;5015519;28;19964;-75
2021/10/14 00:47:45;;;;;;;;;;;;;;;;;;4997658;28;20376;-74
2021/10/14 00:50:10;;;;;;;;;;;;;;;;;;5017600;28;20015;-75
2021/10/14 00:52:36;;;;;;;;;;;;;;;;;;5018957;28;19916;-76
2021/10/14 00:55:02;;;;;;;;;;;;;;;;;;5019195;28;19910;-73
2021/10/14 00:57:29;;;;;;;;;;;;;;;;;;5019383;28;19909;-76
2021/10/14 00:59:55;;;;;;;;;;;;;;;;;;5019321;28;20287;-76
2021/10/14 01:02:20;;;;;;;;;;;;;;;;;;5019123;28;19909;-73
2021/10/14 01:04:46;;;;;;;;;;;;;;;;;;5019426;28;19910;-75
2021/10/14 01:07:12;;;;;;;;;;;;;;;;;;5018852;28;19962;-75
2021/10/14 01:09:40;;;;;;;;;;;;;;;;;;5019027;28;19914;-74
2021/10/14 01:12:06;;;;;;;;;;;;;;;;;;5019394;28;20360;-75
2021/10/14 01:14:32;;;;;;;;;;;;;;;;;;5018585;28;19988;-76
2021/10/14 01:16:58;;;;;;;;;;;;;;;;;;5019241;28;19910;-73
2021/10/14 01:19:24;;;;;;;;;;;;;;;;;;5018965;28;19909;-75
2021/10/14 01:21:50;;;;;;;;;;;;;;;;;;5018725;28;19913;-77
2021/10/14 01:24:16;;;;;;;;;;;;;;;;;;5018571;28;19909;-74
2021/10/14 01:26:42;;;;;;;;;;;;;;;;;;5018532;28;19909;-76
2021/10/14 01:29:08;;;;;;;;;;;;;;;;;;5018430;28;19932;-75
2021/10/14 01:31:34;;;;;;;;;;;;;;;;;;5018313;28;19909;-73
2021/10/14 01:34:00;;;;;;;;;;;;;;;;;;5018458;28;19914;-76
2021/10/14 01:36:26;;;;;;;;;;;;;;;;;;5018129;28;19909;-75
2021/10/14 01:38:51;;;;;;;;;;;;;;;;;;5018498;28;19925;-77
2021/10/14 01:41:17;;;;;;;;;;;;;;;;;;5017880;28;20001;-75
2021/10/14 01:43:43;;;;;;;;;;;;;;;;;;5018089;28;19917;-74
2021/10/14 01:46:09;;;;;;;;;;;;;;;;;;5017731;28;19913;-75
2021/10/14 01:48:35;;;;;;;;;;;;;;;;;;5000574;28;19910;-75
2021/10/14 01:51:01;;;;;;;;;;;;;;;;;;5017981;28;19913;-75
2021/10/14 01:53:27;;;;;;;;;;;;;;;;;;5000134;28;19914;-76
2021/10/14 01:55:53;;;;;;;;;;;;;;;;;;5017551;28;20449;-75
2021/10/14 01:58:19;;;;;;;;;;;;;;;;;;5017696;28;19952;-74
2021/10/14 02:00:45;;;;;;;;;;;;;;;;;;5016854;28;19913;-75
2021/10/14 02:03:11;;;;;;;;;;;;;;;;;;5017588;28;19992;-75
2021/10/14 02:05:37;;;;;;;;;;;;;;;;;;5017982;28;20332;-75
2021/10/14 02:08:02;;;;;;;;;;;;;;;;;;5017715;28;19909;-75
2021/10/14 02:10:28;;;;;;;;;;;;;;;;;;5000121;28;19920;-75
2021/10/14 02:12:54;;;;;;;;;;;;;;;;;;5017264;28;19976;-74
2021/10/14 02:15:20;;;;;;;;;;;;;;;;;;5017812;28;20265;-75
2021/10/14 02:17:46;;;;;;;;;;;;;;;;;;5017634;28;19910;-74
2021/10/14 02:20:12;;;;;;;;;;;;;;;;;;5018054;28;19909;-75
2021/10/14 02:22:38;;;;;;;;;;;;;;;;;;5017164;28;19909;-75
2021/10/14 02:25:04;;;;;;;;;;;;;;;;;;5017381;28;20029;-74
2021/10/14 02:27:30;;;;;;;;;;;;;;;;;;5017186;28;19909;-76
2021/10/14 02:29:56;;;;;;;;;;;;;;;;;;5017088;28;19925;-76
2021/10/14 02:32:22;;;;;;;;;;;;;;;;;;5017110;28;19909;-74
2021/10/14 02:34:47;;;;;;;;;;;;;;;;;;5016594;28;20383;-77
2021/10/14 02:37:13;;;;;;;;;;;;;;;;;;5016755;28;19917;-76
2021/10/14 02:39:39;;;;;;;;;;;;;;;;;;5016793;28;19929;-75
2021/10/14 02:42:05;;;;;;;;;;;;;;;;;;5016711;28;19956;-75
2021/10/14 02:44:31;;;;;;;;;;;;;;;;;;5016897;28;19917;-74
2021/10/14 02:46:57;;;;;;;;;;;;;;;;;;5016465;28;20108;-74
2021/10/14 02:49:23;;;;;;;;;;;;;;;;;;5016460;28;19920;-74
2021/10/14 02:51:49;;;;;;;;;;;;;;;;;;5012862;28;19961;-74
2021/10/14 02:54:15;;;;;;;;;;;;;;;;;;5016685;28;19910;-74
2021/10/14 02:56:41;;;;;;;;;;;;;;;;;;5017161;28;19916;-74
2021/10/14 02:59:07;;;;;;;;;;;;;;;;;;5016443;28;19909;-74
2021/10/14 03:01:33;;;;;;;;;;;;;;;;;;5016623;28;19987;-75
2021/10/14 03:03:59;;;;;;;;;;;;;;;;;;5002714;28;19913;-75
2021/10/14 03:06:24;;;;;;;;;;;;;;;;;;5006068;28;19914;-73
2021/10/14 03:08:50;;;;;;;;;;;;;;;;;;4997424;28;20283;-75
2021/10/14 03:11:16;;;;;;;;;;;;;;;;;;5016427;28;20391;-75
2021/10/14 03:13:42;;;;;;;;;;;;;;;;;;5015020;28;19920;-75
2021/10/14 03:16:08;;;;;;;;;;;;;;;;;;5016679;28;19909;-76
2021/10/14 03:18:34;;;;;;;;;;;;;;;;;;5016496;28;19937;-75
2021/10/14 03:21:00;;;;;;;;;;;;;;;;;;5010443;28;19964;-75
2021/10/14 03:23:26;;;;;;;;;;;;;;;;;;5004755;28;19918;-75
2021/10/14 03:25:52;;;;;;;;;;;;;;;;;;5015964;28;19996;-73
2021/10/14 03:28:18;;;;;;;;;;;;;;;;;;5015737;28;19909;-74
2021/10/14 03:30:44;;;;;;;;;;;;;;;;;;4998145;28;19922;-75
2021/10/14 03:33:10;;;;;;;;;;;;;;;;;;4996509;28;19917;-75
2021/10/14 03:35:36;;;;;;;;;;;;;;;;;;5010475;28;19914;-76
2021/10/14 03:38:02;;;;;;;;;;;;;;;;;;5000503;28;20422;-76
2021/10/14 03:40:28;;;;;;;;;;;;;;;;;;5015946;28;20008;-74
2021/10/14 03:42:54;;;;;;;;;;;;;;;;;;5001642;28;19937;-75
2021/10/14 03:45:20;;;;;;;;;;;;;;;;;;4996706;28;19964;-74
2021/10/14 03:47:45;;;;;;;;;;;;;;;;;;4979006;28;19914;-75
2021/10/14 03:50:11;;;;;;;;;;;;;;;;;;4997318;28;19914;-75
2021/10/14 03:52:37;;;;;;;;;;;;;;;;;;4997766;28;19917;-74
2021/10/14 03:55:03;;;;;;;;;;;;;;;;;;5017435;28;19910;-73
2021/10/14 03:57:29;;;;;;;;;;;;;;;;;;5008576;28;19956;-75
2021/10/14 03:59:55;;;;;;;;;;;;;;;;;;4996972;28;19910;-73
2021/10/14 04:02:21;;;;;;;;;;;;;;;;;;4996497;28;19918;-74
2021/10/14 04:04:47;;;;;;;;;;;;;;;;;;4998498;28;19910;-74
2021/10/14 04:07:13;;;;;;;;;;;;;;;;;;5005949;28;19914;-73
2021/10/14 04:09:39;;;;;;;;;;;;;;;;;;5017345;28;20287;-75
2021/10/14 04:12:05;;;;;;;;;;;;;;;;;;5015047;28;20438;-76
2021/10/14 04:14:31;;;;;;;;;;;;;;;;;;5008023;28;19921;-73
2021/10/14 04:16:56;;;;;;;;;;;;;;;;;;4997410;28;20372;-75
2021/10/14 04:19:22;;;;;;;;;;;;;;;;;;4999915;28;20328;-75
2021/10/14 04:21:49;;;;;;;;;;;;;;;;;;5010162;28;20368;-73
2021/10/14 04:24:15;;;;;;;;;;;;;;;;;;5004903;28;19979;-75
2021/10/14 04:26:40;;;;;;;;;;;;;;;;;;5009747;28;20021;-76
2021/10/14 04:29:06;;;;;;;;;;;;;;;;;;4998677;28;20407;-74
2021/10/14 04:31:32;;;;;;;;;;;;;;;;;;5015530;28;19917;-75
2021/10/14 04:33:58;;;;;;;;;;;;;;;;;;5015407;28;20272;-75
2021/10/14 04:36:24;;;;;;;;;;;;;;;;;;5015602;28;20423;-74
2021/10/14 04:38:50;;;;;;;;;;;;;;;;;;5011817;28;19960;-75
2021/10/14 04:41:16;;;;;;;;;;;;;;;;;;5011050;28;19917;-75
2021/10/14 04:43:42;;;;;;;;;;;;;;;;;;5015510;28;19909;-75
2021/10/14 04:46:08;;;;;;;;;;;;;;;;;;4996303;28;19964;-73
2021/10/14 04:48:34;;;;;;;;;;;;;;;;;;5001655;28;19945;-74
2021/10/14 04:51:00;;;;;;;;;;;;;;;;;;4978674;28;19922;-75
2021/10/14 04:53:26;;;;;;;;;;;;;;;;;;4995714;28;20004;-75
2021/10/14 04:55:52;;;;;;;;;;;;;;;;;;4999936;28;19949;-75
2021/10/14 04:58:18;;;;;;;;;;;;;;;;;;4999509;28;19914;-75
2021/10/14 05:00:43;;;;;;;;;;;;;;;;;;5015098;28;19950;-76
2021/10/14 05:03:09;;;;;;;;;;;;;;;;;;5016110;28;19967;-74
2021/10/14 05:05:35;;;;;;;;;;;;;;;;;;5013546;28;19921;-75
2021/10/14 05:08:02;;;;;;;;;;;;;;;;;;4999284;28;19914;-76
2021/10/14 05:10:28;;;;;;;;;;;;;;;;;;5015028;28;19917;-73
2021/10/14 05:12:54;;;;;;;;;;;;;;;;;;5005805;28;19935;-75
2021/10/14 05:15:20;;;;;;;;;;;;;;;;;;5013591;28;20439;-76
2021/10/14 05:17:49;;;;;;;;;;;;;;;;;;5015396;28;19910;-74
2021/10/14 05:20:15;;;;;;;;;;;;;;;;;;5014982;28;19914;-76
2021/10/14 05:22:41;;;;;;;;;;;;;;;;;;5015103;28;19952;-76
2021/10/14 05:25:07;;;;;;;;;;;;;;;;;;5013092;28;19914;-75
2021/10/14 05:27:34;;;;;;;;;;;;;;;;;;5014843;28;19910;-75
2021/10/14 05:30:00;;;;;;;;;;;;;;;;;;5015050;28;19928;-76
2021/10/14 05:32:26;;;;;;;;;;;;;;;;;;5015148;28;19910;-75
2021/10/14 05:34:52;;;;;;;;;;;;;;;;;;5012629;28;19914;-76
2021/10/14 05:37:18;;;;;;;;;;;;;;;;;;5015316;28;19921;-75
2021/10/14 05:39:46;;;;;;;;;;;;;;;;;;5018178;28;19910;-75
2021/10/14 05:42:12;;;;;;;;;;;;;;;;;;5009345;28;20427;-73
2021/10/14 05:44:38;;;;;;;;;;;;;;;;;;5000993;28;19959;-76
2021/10/14 05:47:04;;;;;;;;;;;;;;;;;;5018255;28;19910;-75
2021/10/14 05:49:30;;;;;;;;;;;;;;;;;;5018076;28;19917;-74
2021/10/14 05:51:56;;;;;;;;;;;;;;;;;;5001075;28;19913;-76
2021/10/14 05:54:22;;;;;;;;;;;;;;;;;;5008315;28;20395;-74
2021/10/14 05:56:48;;;;;;;;;;;;;;;;;;5011817;28;19913;-76
2021/10/14 05:59:14;;;;;;;;;;;;;;;;;;5000941;28;19914;-76
2021/10/14 06:01:40;;;;;;;;;;;;;;;;;;4997990;28;19921;-73
2021/10/14 06:04:05;;;;;;;;;;;;;;;;;;4998595;28;19917;-76
2021/10/14 06:06:31;;;;;;;;;;;;;;;;;;5014517;28;19936;-74
2021/10/14 06:08:57;;;;;;;;;;;;;;;;;;5017122;28;19909;-73
2021/10/14 06:11:23;;;;;;;;;;;;;;;;;;5018145;28;19948;-76
2021/10/14 06:13:49;;;;;;;;;;;;;;;;;;5016883;28;19913;-74
2021/10/14 06:16:15;;;;;;;;;;;;;;;;;;5007548;28;19925;-74
2021/10/14 06:18:41;;;;;;;;;;;;;;;;;;5010292;28;19980;-76
2021/10/14 06:21:07;;;;;;;;;;;;;;;;;;5000108;28;19946;-74
2021/10/14 06:23:33;;;;;;;;;;;;;;;;;;5009541;28;19922;-75
2021/10/14 06:25:59;;;;;;;;;;;;;;;;;;5016652;28;19913;-75
2021/10/14 06:28:25;;;;;;;;;;;;;;;;;;4999491;28;20004;-74
2021/10/14 06:30:51;;;;;;;;;;;;;;;;;;5016667;28;19972;-75
2021/10/14 06:33:17;;;;;;;;;;;;;;;;;;5003142;28;19949;-76
2021/10/14 06:35:43;;;;;;;;;;;;;;;;;;5006882;28;19914;-73
2021/10/14 06:38:08;;;;;;;;;;;;;;;;;;5006686;28;19914;-75
2021/10/14 06:40:34;;;;;;;;;;;;;;;;;;5003852;28;19925;-76
2021/10/14 06:43:00;;;;;;;;;;;;;;;;;;5012239;28;19950;-73
2021/10/14 06:45:26;;;;;;;;;;;;;;;;;;5000812;28;19928;-76
2021/10/14 06:47:52;;;;;;;;;;;;;;;;;;4997982;28;19921;-75
2021/10/14 06:50:18;;;;;;;;;;;;;;;;;;4997386;28;19913;-75
2021/10/14 06:52:44;;;;;;;;;;;;;;;;;;4980978;28;19910;-76
2021/10/14 06:55:10;;;;;;;;;;;;;;;;;;5006143;28;19944;-75
2021/10/14 06:57:36;;;;;;;;;;;;;;;;;;5002916;28;19913;-75
2021/10/14 07:00:02;;;;;;;;;;;;;;;;;;5003224;28;19973;-74
2021/10/14 07:02:28;;;;;;;;;;;;;;;;;;5006570;28;19917;-74
2021/10/14 07:04:54;;;;;;;;;;;;;;;;;;4995871;28;19961;-75
2021/10/14 07:07:20;;;;;;;;;;;;;;;;;;5008310;28;19922;-77
2021/10/14 07:09:46;;;;;;;;;;;;;;;;;;4997306;28;19929;-74
2021/10/14 07:12:12;;;;;;;;;;;;;;;;;;4996732;28;19934;-79
2021/10/14 07:14:37;;;;;;;;;;;;;;;;;;5001313;28;19917;-78
2021/10/14 07:17:03;;;;;;;;;;;;;;;;;;5015811;28;20382;-75
2021/10/14 07:19:29;;;;;;;;;;;;;;;;;;5001405;28;20312;-74
2021/10/14 07:21:55;;;;;;;;;;;;;;;;;;5007151;28;20519;-74
2021/10/14 07:24:21;;;;;;;;;;;;;;;;;;5001783;28;19965;-76
2021/10/14 07:26:47;;;;;;;;;;;;;;;;;;5003960;28;20284;-75
2021/10/14 07:29:13;;;;;;;;;;;;;;;;;;5012812;28;19918;-76
2021/10/14 07:31:40;;;;;;;;;;;;;;;;;;4992239;28;19967;-74
2021/10/14 07:34:06;;;;;;;;;;;;;;;;;;4991252;28;19914;-75
2021/10/14 07:36:32;;;;;;;;;;;;;;;;;;4996495;28;19960;-76
2021/10/14 07:38:58;;;;;;;;;;;;;;;;;;5005288;28;19913;-76
2021/10/14 07:41:24;;;;;;;;;;;;;;;;;;5010650;28;19925;-76
2021/10/14 07:43:50;;;;;;;;;;;;;;;;;;4996232;28;19921;-74
2021/10/14 07:46:16;;;;;;;;;;;;;;;;;;4987772;28;20292;-77
2021/10/14 07:48:42;;;;;;;;;;;;;;;;;;4977086;28;20448;-76
2021/10/14 07:51:08;;;;;;;;;;;;;;;;;;4983796;28;20020;-73
2021/10/14 07:53:34;;;;;;;;;;;;;;;;;;5014987;28;20000;-77
2021/10/14 07:56:00;;;;;;;;;;;;;;;;;;5006817;28;19992;-72
2021/10/14 07:58:26;;;;;;;;;;;;;;;;;;5026721;28;19909;-72
2021/10/14 08:00:52;;;;;;;;;;;;;;;;;;5025217;28;19909;-74
2021/10/14 08:03:18;;;;;;;;;;;;;;;;;;5003456;28;20367;-77
2021/10/14 08:05:43;;;;;;;;;;;;;;;;;;5006770;28;19964;-76
2021/10/14 08:08:09;;;;;;;;;;;;;;;;;;4981550;28;20317;-72
2021/10/14 08:10:35;;;;;;;;;;;;;;;;;;5000665;28;19949;-74
2021/10/14 08:13:01;;;;;;;;;;;;;;;;;;5008413;28;19921;-68
2021/10/14 08:15:27;;;;;;;;;;;;;;;;;;5015669;28;19980;-76
2021/10/14 08:17:53;;;;;;;;;;;;;;;;;;5003837;28;19922;-76
2021/10/14 08:20:19;;;;;;;;;;;;;;;;;;5019925;28;19937;-77
2021/10/14 08:22:45;;;;;;;;;;;;;;;;;;5020346;28;19913;-74
2021/10/14 08:25:14;;;;;;;;;;;;;;;;;;5020276;28;20431;-75
2021/10/14 08:27:47;;;;;;;;;;;;;;;;;;5020813;28;19918;-74
2021/10/14 08:30:13;;;;;;;;;;;;;;;;;;4983694;28;19921;-73
2021/10/14 08:32:41;;;;;;;;;;;;;;;;;;5002325;28;20446;-75
2021/10/14 08:35:07;;;;;;;;;;;;;;;;;;4983982;28;19916;-73
2021/10/14 08:37:33;;;;;;;;;;;;;;;;;;5002758;28;19914;-76
2021/10/14 08:39:59;;;;;;;;;;;;;;;;;;5016068;28;19913;-75
2021/10/14 08:42:25;;;;;;;;;;;;;;;;;;5025496;28;19920;-73
2021/10/14 08:44:51;;;;;;;;;;;;;;;;;;5022259;28;19952;-72
2021/10/14 08:47:17;;;;;;;;;;;;;;;;;;5023038;28;19979;-76
2021/10/14 08:49:44;;;;;;;;;;;;;;;;;;5019126;28;19949;-76
2021/10/14 08:52:10;;;;;;;;;;;;;;;;;;5018675;28;19921;-78
2021/10/14 08:54:36;;;;;;;;;;;;;;;;;;5014717;28;19913;-74
2021/10/14 08:57:02;;;;;;;;;;;;;;;;;;5017329;28;19909;-76
2021/10/14 08:59:28;;;;;;;;;;;;;;;;;;5015022;28;20582;-76
2021/10/14 09:01:53;;;;;;;;;;;;;;;;;;5002398;28;20266;-77
2021/10/14 09:04:22;;;;;;;;;;;;;;;;;;5000486;28;20385;-75
2021/10/14 09:06:48;;;;;;;;;;;;;;;;;;4984646;28;19917;-77
2021/10/14 09:09:14;;;;;;;;;;;;;;;;;;5000727;28;19961;-75
2021/10/14 09:11:40;;;;;;;;;;;;;;;;;;5002531;28;20288;-77
2021/10/14 09:14:08;;;;;;;;;;;;;;;;;;5000005;28;19918;-72
2021/10/14 09:16:34;;;;;;;;;;;;;;;;;;5001711;28;19917;-73
2021/10/14 09:19:00;;;;;;;;;;;;;;;;;;5002102;28;19918;-75
2021/10/14 09:21:26;;;;;;;;;;;;;;;;;;5000586;28;19917;-75
2021/10/14 09:23:52;;;;;;;;;;;;;;;;;;5001066;28;19916;-77
2021/10/14 09:26:17;;;;;;;;;;;;;;;;;;5000830;28;19987;-77
2021/10/14 09:28:43;;;;;;;;;;;;;;;;;;5002266;28;19971;-77
2021/10/14 09:31:09;;;;;;;;;;;;;;;;;;5000369;28;19934;-72
2021/10/14 09:33:35;;;;;;;;;;;;;;;;;;5000732;28;19969;-77
2021/10/14 09:36:01;;;;;;;;;;;;;;;;;;5002089;28;19960;-74
2021/10/14 09:38:27;;;;;;;;;;;;;;;;;;5000805;28;20008;-72
2021/10/14 09:40:53;;;;;;;;;;;;;;;;;;5002000;28;20008;-75
2021/10/14 09:43:19;;;;;;;;;;;;;;;;;;5001106;28;19910;-75
2021/10/14 09:45:45;;;;;;;;;;;;;;;;;;4999556;28;20016;-72
2021/10/14 09:48:11;;;;;;;;;;;;;;;;;;5000924;28;19914;-72
2021/10/14 09:50:37;;;;;;;;;;;;;;;;;;5002444;28;20284;-77
2021/10/14 09:53:03;;;;;;;;;;;;;;;;;;5000848;28;19913;-76
2021/10/14 09:55:29;;;;;;;;;;;;;;;;;;5020484;28;19995;-74
2021/10/14 09:57:55;;;;;;;;;;;;;;;;;;5021887;28;19909;-75
2021/10/14 10:00:21;;;;;;;;;;;;;;;;;;5019622;28;19914;-74
2021/10/14 10:02:47;;;;;;;;;;;;;;;;;;5003141;28;19980;-76
2021/10/14 10:05:13;;;;;;;;;;;;;;;;;;5021161;28;20257;-73
2021/10/14 10:07:39;;;;;;;;;;;;;;;;;;5021798;28;20435;-76
2021/10/14 10:10:05;;;;;;;;;;;;;;;;;;5020791;28;20012;-75
2021/10/14 10:12:31;;;;;;;;;;;;;;;;;;5002181;28;20299;-75
2021/10/14 10:14:57;;;;;;;;;;;;;;;;;;5022263;28;20360;-77
2021/10/14 10:17:26;;;;;;;;;;;;;;;;;;5021337;28;19960;-74
2021/10/14 10:19:52;;;;;;;;;;;;;;;;;;5019735;28;19916;-76
2021/10/14 10:22:18;;;;;;;;;;;;;;;;;;5019293;28;19922;-76
2021/10/14 10:24:44;;;;;;;;;;;;;;;;;;5003880;28;19995;-75
2021/10/14 10:27:10;;;;;;;;;;;;;;;;;;5021765;28;19917;-73
2021/10/14 10:29:36;;;;;;;;;;;;;;;;;;5021296;28;20455;-77
2021/10/14 10:32:02;;;;;;;;;;;;;;;;;;5021515;28;19909;-75
2021/10/14 10:34:28;;;;;;;;;;;;;;;;;;5019159;28;19913;-74
2021/10/14 10:36:54;;;;;;;;;;;;;;;;;;5019393;28;19909;-75
2021/10/14 10:39:20;;;;;;;;;;;;;;;;;;5019465;28;19913;-76
2021/10/14 10:41:49;;;;;;;;;;;;;;;;;;5019574;28;19917;-74
2021/10/14 10:44:15;;;;;;;;;;;;;;;;;;5019859;28;19913;-75
2021/10/14 10:46:41;;;;;;;;;;;;;;;;;;5022495;28;19916;-77
2021/10/14 10:49:07;;;;;;;;;;;;;;;;;;5020297;28;19973;-73
2021/10/14 10:51:33;;;;;;;;;;;;;;;;;;5020499;28;20023;-76
2021/10/14 10:54:09;;;;;;;;;;;;;;;;;;5019427;28;19960;-73
2021/10/14 10:56:38;;;;;;;;;;;;;;;;;;5020204;28;20292;-73
2021/10/14 10:59:04;;;;;;;;;;;;;;;;;;5019954;28;19910;-77
2021/10/14 11:01:29;;;;;;;;;;;;;;;;;;5018819;28;20403;-76
2021/10/14 11:03:55;;;;;;;;;;;;;;;;;;5019151;28;19914;-73
2021/10/14 11:06:21;;;;;;;;;;;;;;;;;;5020769;28;20411;-77
2021/10/14 11:08:48;;;;;;;;;;;;;;;;;;5019180;28;19910;-72
2021/10/14 11:11:15;;;;;;;;;;;;;;;;;;5018799;28;19925;-76
2021/10/14 11:13:44;;;;;;;;;;;;;;;;;;5018879;28;19909;-77
2021/10/14 11:16:10;;;;;;;;;;;;;;;;;;5018946;28;19971;-74
2021/10/14 11:18:37;;;;;;;;;;;;;;;;;;5016602;28;19913;-73
2021/10/14 11:21:03;;;;;;;;;;;;;;;;;;5015799;28;20257;-77
2021/10/14 11:23:29;;;;;;;;;;;;;;;;;;5018071;28;19916;-76
2021/10/14 11:25:58;;;;;;;;;;;;;;;;;;5016780;28;19910;-73
2021/10/14 11:28:24;;;;;;;;;;;;;;;;;;5018035;28;20390;-75
2021/10/14 11:30:51;;;;;;;;;;;;;;;;;;5018298;28;19961;-75
2021/10/14 11:33:17;;;;;;;;;;;;;;;;;;5018189;28;19910;-77
2021/10/14 11:35:43;;;;;;;;;;;;;;;;;;5018823;28;20012;-74
2021/10/14 11:38:09;;;;;;;;;;;;;;;;;;5001454;28;19976;-76
2021/10/14 11:40:35;;;;;;;;;;;;;;;;;;5019527;28;19913;-74
2021/10/14 11:43:01;;;;;;;;;;;;;;;;;;5019567;28;19916;-75
2021/10/14 11:45:27;;;;;;;;;;;;;;;;;;5018324;28;19944;-76
2021/10/14 11:47:53;;;;;;;;;;;;;;;;;;5018890;28;20409;-72
2021/10/14 11:50:19;;;;;;;;;;;;;;;;;;5017976;28;19925;-77
2021/10/14 11:52:45;;;;;;;;;;;;;;;;;;5019228;28;19910;-77
2021/10/14 11:55:10;;;;;;;;;;;;;;;;;;5017920;28;19913;-71
2021/10/14 11:57:38;;;;;;;;;;;;;;;;;;5019559;28;19910;-73
2021/10/14 12:00:04;;;;;;;;;;;;;;;;;;5017916;28;19916;-74
2021/10/14 12:02:30;;;;;;;;;;;;;;;;;;5019766;28;20011;-76
2021/10/14 12:04:56;;;;;;;;;;;;;;;;;;5019614;28;19977;-76
2021/10/14 12:07:22;;;;;;;;;;;;;;;;;;5020096;28;19947;-75
2021/10/14 12:09:48;;;;;;;;;;;;;;;;;;5017999;28;19917;-75
2021/10/14 12:12:14;;;;;;;;;;;;;;;;;;5017745;28;19913;-75
2021/10/14 12:14:40;;;;;;;;;;;;;;;;;;5018062;28;19921;-78
2021/10/14 12:17:06;;;;;;;;;;;;;;;;;;5019187;28;19914;-77
2021/10/14 12:19:32;;;;;;;;;;;;;;;;;;5018532;28;19992;-74
2021/10/14 12:21:57;;;;;;;;;;;;;;;;;;5018703;28;19955;-74
2021/10/14 12:24:28;;;;;;;;;;;;;;;;;;5016658;28;19913;-72
2021/10/14 12:26:54;;;;;;;;;;;;;;;;;;5018092;28;19920;-76
2021/10/14 12:29:20;;;;;;;;;;;;;;;;;;5018195;28;19944;-76
2021/10/14 12:31:46;;;;;;;;;;;;;;;;;;5017798;28;19921;-71
2021/10/14 12:34:12;;;;;;;;;;;;;;;;;;5017239;28;19913;-77
2021/10/14 12:36:38;;;;;;;;;;;;;;;;;;5018111;28;19922;-76
2021/10/14 12:39:04;;;;;;;;;;;;;;;;;;5017987;28;19977;-71
2021/10/14 12:41:32;;;;;;;;;;;;;;;;;;5000152;28;20283;-76
2021/10/14 12:44:01;;;;;;;;;;;;;;;;;;5018546;28;19936;-75
2021/10/14 12:49:12;;;;;;;;;;;;;;;;;;5022435;28;19918;-75
2021/10/14 12:51:38;;;;;;;;;;;;;;;;;;5022478;28;19917;-75
2021/10/14 12:54:04;;;;;;;;;;;;;;;;;;5000187;28;20439;-77
2021/10/14 12:56:29;;;;;;;;;;;;;;;;;;5001477;28;19960;-75
2021/10/14 12:58:55;;;;;;;;;;;;;;;;;;5003187;28;20361;-75
2021/10/14 13:01:21;;;;;;;;;;;;;;;;;;5009586;28;19894;-71
2021/10/14 13:03:50;;;;;;;;;;;;;;;;;;5008609;28;19910;-71
2021/10/14 13:06:16;;;;;;;;;;;;;;;;;;5006116;28;19937;-71
2021/10/14 13:08:43;;;;;;;;;;;;;;;;;;5002202;28;20313;-78
2021/10/14 13:11:09;;;;;;;;;;;;;;;;;;5002580;28;19914;-75
2021/10/14 13:13:35;;;;;;;;;;;;;;;;;;4999464;28;20004;-74
2021/10/14 13:16:01;;;;;;;;;;;;;;;;;;5000374;28;19917;-75
2021/10/14 13:18:27;;;;;;;;;;;;;;;;;;5001473;28;19917;-71
2021/10/14 13:20:53;;;;;;;;;;;;;;;;;;4999292;28;19913;-76
2021/10/14 13:23:19;;;;;;;;;;;;;;;;;;4999127;28;20407;-74
2021/10/14 13:25:46;;;;;;;;;;;;;;;;;;5001023;28;20303;-71
2021/10/14 13:28:12;;;;;;;;;;;;;;;;;;5000385;28;19913;-75
2021/10/14 13:30:38;;;;;;;;;;;;;;;;;;5001160;28;20011;-74
2021/10/14 13:33:04;;;;;;;;;;;;;;;;;;4999062;28;19948;-76
2021/10/14 13:35:31;;;;;;;;;;;;;;;;;;5009054;28;19917;-71
2021/10/14 13:37:57;;;;;;;;;;;;;;;;;;5023561;28;20363;-72
2021/10/14 13:40:23;;;;;;;;;;;;;;;;;;5009843;28;19920;-75
2021/10/14 13:42:54;;;;;;;;;;;;;;;;;;4999705;28;19920;-75
2021/10/14 13:45:20;;;;;;;;;;;;;;;;;;5010507;28;19913;-74
2021/10/14 13:47:48;;;;;;;;;;;;;;;;;;5017902;28;19949;-72
2021/10/14 13:50:14;;;;;;;;;;;;;;;;;;5024889;28;19937;-75
2021/10/14 13:52:43;;;;;;;;;;;;;;;;;;5020363;28;19925;-73
2021/10/14 13:55:09;;;;;;;;;;;;;;;;;;5025998;28;19910;-75
2021/10/14 13:57:35;;;;;;;;;;;;;;;;;;5019489;28;19959;-71
2021/10/14 14:00:01;;;;;;;;;;;;;;;;;;5024360;28;19910;-71
2021/10/14 14:02:27;;;;;;;;;;;;;;;;;;5026830;28;20016;-74
2021/10/14 14:04:53;;;;;;;;;;;;;;;;;;5025535;28;19917;-73
2021/10/14 14:07:19;;;;;;;;;;;;;;;;;;5024275;28;19913;-72
2021/10/14 14:09:45;;;;;;;;;;;;;;;;;;5006896;28;19917;-75
2021/10/14 14:12:11;;;;;;;;;;;;;;;;;;5020829;28;20059;-75
2021/10/14 14:14:37;;;;;;;;;;;;;;;;;;5020111;28;20283;-74
2021/10/14 14:17:03;;;;;;;;;;;;;;;;;;5018401;28;19917;-72
2021/10/14 14:19:28;;;;;;;;;;;;;;;;;;5020543;28;19914;-74
2021/10/14 14:21:54;;;;;;;;;;;;;;;;;;5019857;28;19919;-74
2021/10/14 14:24:20;;;;;;;;;;;;;;;;;;5022703;28;19920;-70
2021/10/14 14:26:46;;;;;;;;;;;;;;;;;;5027886;28;19917;-71
2021/10/14 14:29:12;;;;;;;;;;;;;;;;;;5031172;28;19972;-71
2021/10/14 14:31:38;;;;;;;;;;;;;;;;;;5047839;28;19918;-70
2021/10/14 14:34:04;;;;;;;;;;;;;;;;;;5042918;28;19916;-71
2021/10/14 14:36:31;;;;;;;;;;;;;;;;;;5028294;28;19914;-70
2021/10/14 14:38:57;;;;;;;;;;;;;;;;;;5024484;28;20000;-74
2021/10/14 14:41:23;;;;;;;;;;;;;;;;;;5024439;28;19916;-75
2021/10/14 14:43:48;;;;;;;;;;;;;;;;;;5008403;28;19934;-72
2021/10/14 14:46:18;;;;;;;;;;;;;;;;;;5006707;28;20324;-71
2021/10/14 14:48:44;;;;;;;;;;;;;;;;;;5007639;28;19910;-70
2021/10/14 14:51:10;;;;;;;;;;;;;;;;;;5007205;28;19918;-69
2021/10/14 14:53:36;;;;;;;;;;;;;;;;;;5008489;28;19917;-71
2021/10/14 14:56:02;;;;;;;;;;;;;;;;;;5007451;28;19941;-73
2021/10/14 14:58:28;;;;;;;;;;;;;;;;;;4998266;28;19932;-77
2021/10/14 15:00:55;;;;;;;;;;;;;;;;;;5003205;28;20367;-76
2021/10/14 15:03:21;;;;;;;;;;;;;;;;;;4998460;28;19913;-71
2021/10/14 15:05:46;;;;;;;;;;;;;;;;;;5005462;28;19916;-70
2021/10/14 15:08:12;;;;;;;;;;;;;;;;;;5005035;28;19921;-75
2021/10/14 15:10:39;;;;;;;;;;;;;;;;;;5005201;28;19914;-72
2021/10/14 15:13:06;;;;;;;;;;;;;;;;;;5007577;28;20213;-71
2021/10/14 15:15:32;;;;;;;;;;;;;;;;;;5008180;28;20403;-72
2021/10/14 15:17:58;;;;;;;;;;;;;;;;;;5008624;28;19913;-72
2021/10/14 15:20:24;;;;;;;;;;;;;;;;;;5004541;28;19960;-71
2021/10/14 15:22:50;;;;;;;;;;;;;;;;;;5007531;28;19921;-75
2021/10/14 15:25:16;;;;;;;;;;;;;;;;;;5006572;28;20375;-70
2021/10/14 15:27:42;;;;;;;;;;;;;;;;;;5007886;28;19910;-72
2021/10/14 15:30:08;;;;;;;;;;;;;;;;;;5006596;28;19918;-72
2021/10/14 15:32:34;;;;;;;;;;;;;;;;;;5005763;28;19917;-72
2021/10/14 15:35:00;;;;;;;;;;;;;;;;;;5006555;28;19917;-72
2021/10/14 15:37:27;;;;;;;;;;;;;;;;;;5007264;28;19910;-72
2021/10/14 15:39:54;;;;;;;;;;;;;;;;;;5007586;28;19953;-71
2021/10/14 15:42:20;;;;;;;;;;;;;;;;;;5006700;28;19960;-78
2021/10/14 15:44:46;;;;;;;;;;;;;;;;;;5020943;28;19909;-75
2021/10/14 15:47:12;;;;;;;;;;;;;;;;;;5019977;28;19921;-76
2021/10/14 15:49:38;;;;;;;;;;;;;;;;;;5020061;28;19910;-76
2021/10/14 15:52:04;;;;;;;;;;;;;;;;;;5016090;28;19909;-74
2021/10/14 15:54:30;;;;;;;;;;;;;;;;;;5014824;28;19917;-75
2021/10/14 15:56:56;;;;;;;;;;;;;;;;;;5015439;28;19915;-75
2021/10/14 15:59:22;;;;;;;;;;;;;;;;;;4999094;28;19910;-78
2021/10/14 16:01:47;;;;;;;;;;;;;;;;;;5015239;28;19914;-74
2021/10/14 16:04:13;;;;;;;;;;;;;;;;;;5016837;28;19921;-75
2021/10/14 16:06:39;;;;;;;;;;;;;;;;;;5015924;28;19914;-75
2021/10/14 16:09:05;;;;;;;;;;;;;;;;;;5015835;28;19938;-74
2021/10/14 16:11:31;;;;;;;;;;;;;;;;;;5016753;28;19927;-76
2021/10/14 16:13:57;;;;;;;;;;;;;;;;;;5014469;28;19963;-75
2021/10/14 16:16:23;;;;;;;;;;;;;;;;;;5015594;28;19914;-74
2021/10/14 16:18:49;;;;;;;;;;;;;;;;;;5015769;28;19909;-75
2021/10/14 16:21:15;;;;;;;;;;;;;;;;;;5015794;28;19913;-72
2021/10/14 16:23:41;;;;;;;;;;;;;;;;;;5015503;28;19921;-75
2021/10/14 16:26:07;;;;;;;;;;;;;;;;;;5015278;28;19915;-75
2021/10/14 16:28:33;;;;;;;;;;;;;;;;;;5014684;28;19914;-76
2021/10/14 16:31:03;;;;;;;;;;;;;;;;;;5014524;28;19971;-75
2021/10/14 16:33:32;;;;;;;;;;;;;;;;;;4995879;28;20349;-76
2021/10/14 16:35:58;;;;;;;;;;;;;;;;;;5013678;28;20412;-76
2021/10/14 16:38:24;;;;;;;;;;;;;;;;;;5017192;28;20032;-72
2021/10/14 16:40:50;;;;;;;;;;;;;;;;;;5016639;28;19956;-74